Time;durP1;ratioP1;P1;durP2;ratioP2;P2;SDS_P1;SDS_P2;PMS_P1;PMS_P2;Temp;Humidity;BMP_temperature;BMP_pressure;BME280_temperature;BME280_humidity;BME280_pressure;Samples;Min_cycle;Max_cycle;Signal;HPM_P1;HPM_P2
2021/04/24 00:00:28;;;;;;;41.58;16.45;;;30.70;74.50;;;;;;5086218;28;20070;-53
2021/04/24 00:02:58;;;;;;;42.92;16.98;;;30.70;74.50;;;;;;5068188;28;20088;-54
2021/04/24 00:05:29;;;;;;;43.97;16.17;;;30.80;74.70;;;;;;5086169;28;20261;-50
2021/04/24 00:08:03;;;;;;;47.30;15.35;;;30.70;74.70;;;;;;5086049;28;20115;-48
2021/04/24 00:10:33;;;;;;;41.67;16.70;;;30.70;74.80;;;;;;5067747;28;20024;-56
2021/04/24 00:13:01;;;;;;;38.20;15.80;;;30.70;74.90;;;;;;5085809;28;20020;-51
2021/04/24 00:15:28;;;;;;;35.70;15.38;;;30.60;74.90;;;;;;5068333;28;20252;-54
2021/04/24 00:17:57;;;;;;;43.08;19.50;;;30.60;75.20;;;;;;5085815;28;20023;-53
2021/04/24 00:20:24;;;;;;;37.40;18.10;;;30.60;75.20;;;;;;5086279;28;20032;-50
2021/04/24 00:22:52;;;;;;;31.77;15.57;;;30.60;75.30;;;;;;5085878;28;20021;-48
2021/04/24 00:25:19;;;;;;;35.72;18.08;;;30.50;75.30;;;;;;5085963;28;20079;-51
2021/04/24 00:27:46;;;;;;;38.28;16.00;;;30.50;75.30;;;;;;5068000;28;20051;-50
2021/04/24 00:30:21;;;;;;;33.53;15.45;;;30.50;75.80;;;;;;5085962;28;20024;-53
2021/04/24 00:32:48;;;;;;;32.58;15.05;;;30.50;75.50;;;;;;5085780;28;20020;-52
2021/04/24 00:35:19;;;;;;;29.77;13.95;;;30.50;75.60;;;;;;5085899;28;20029;-49
2021/04/24 00:37:47;;;;;;;29.02;13.82;;;30.40;75.50;;;;;;5085657;28;20107;-47
2021/04/24 00:40:15;;;;;;;26.20;13.85;;;30.40;75.50;;;;;;5085597;28;20036;-48
2021/04/24 00:42:42;;;;;;;30.83;13.43;;;30.40;75.70;;;;;;5085520;28;20047;-50
2021/04/24 00:45:11;;;;;;;29.70;14.35;;;30.40;75.60;;;;;;5085422;28;20024;-53
2021/04/24 00:47:38;;;;;;;27.98;12.93;;;30.40;75.50;;;;;;5085170;28;20027;-53
2021/04/24 00:50:07;;;;;;;33.05;13.55;;;30.40;75.50;;;;;;5085338;28;20035;-57
2021/04/24 00:52:34;;;;;;;28.13;13.45;;;30.30;75.40;;;;;;5085428;28;20017;-45
2021/04/24 00:55:01;;;;;;;24.02;13.35;;;30.30;75.40;;;;;;5085065;28;20020;-51
2021/04/24 00:57:33;;;;;;;25.02;13.52;;;30.30;75.50;;;;;;5085025;28;20320;-54
2021/04/24 01:00:00;;;;;;;25.33;12.93;;;30.30;75.40;;;;;;5084996;28;20072;-50
2021/04/24 01:02:27;;;;;;;95.00;19.27;;;30.30;75.30;;;;;;5084903;28;20054;-50
2021/04/24 01:04:55;;;;;;;61.78;16.08;;;30.20;75.20;;;;;;5084894;28;20332;-50
2021/04/24 01:07:21;;;;;;;66.15;16.77;;;30.20;75.10;;;;;;5084896;28;20024;-50
2021/04/24 01:09:48;;;;;;;64.30;15.93;;;30.20;75.10;;;;;;5084887;28;20021;-51
2021/04/24 01:12:15;;;;;;;41.67;14.18;;;30.20;75.00;;;;;;5066977;28;20217;-53
2021/04/24 01:14:41;;;;;;;34.38;13.68;;;30.20;74.90;;;;;;5066996;28;20016;-53
2021/04/24 01:17:08;;;;;;;32.58;12.77;;;30.20;74.90;;;;;;5084575;28;20031;-55
2021/04/24 01:19:35;;;;;;;38.30;13.55;;;30.10;74.60;;;;;;5065434;28;20022;-51
2021/04/24 01:22:10;;;;;;;38.95;13.20;;;30.10;74.40;;;;;;5084952;28;20024;-51
2021/04/24 01:24:38;;;;;;;25.50;12.65;;;30.10;74.40;;;;;;5083971;28;20111;-54
2021/04/24 01:27:07;;;;;;;27.35;12.60;;;30.10;74.30;;;;;;5084863;28;20032;-53
2021/04/24 01:29:35;;;;;;;32.95;12.43;;;30.10;74.20;;;;;;5084404;28;20017;-52
2021/04/24 01:32:06;;;;;;;29.83;12.98;;;30.10;74.20;;;;;;5084241;28;20336;-51
2021/04/24 01:34:33;;;;;;;20.92;11.55;;;30.00;74.00;;;;;;5084202;28;20091;-56
2021/04/24 01:37:03;;;;;;;21.52;11.18;;;30.00;74.00;;;;;;5085092;28;20304;-55
2021/04/24 01:39:32;;;;;;;22.15;11.77;;;30.00;73.80;;;;;;5066602;28;20124;-51
2021/04/24 01:41:59;;;;;;;23.58;12.00;;;30.00;73.70;;;;;;5084851;28;20255;-50
2021/04/24 01:44:26;;;;;;;22.95;11.20;;;30.00;73.60;;;;;;5084176;28;20020;-54
2021/04/24 01:46:53;;;;;;;23.08;11.57;;;30.00;73.50;;;;;;5084671;28;20064;-53
2021/04/24 01:49:21;;;;;;;19.50;11.02;;;29.90;73.60;;;;;;5084222;28;20020;-56
2021/04/24 01:51:48;;;;;;;22.05;11.00;;;29.90;73.50;;;;;;5066676;28;20031;-55
2021/04/24 01:54:15;;;;;;;24.65;11.23;;;29.90;73.90;;;;;;5066384;28;20176;-56
2021/04/24 01:56:48;;;;;;;16.58;10.10;;;29.90;73.60;;;;;;5084649;28;20052;-52
2021/04/24 01:59:19;;;;;;;18.98;10.45;;;29.90;73.50;;;;;;5083852;28;20317;-50
2021/04/24 02:01:52;;;;;;;24.92;10.20;;;29.80;73.50;;;;;;5084343;28;20091;-54
2021/04/24 02:04:21;;;;;;;19.45;10.55;;;29.80;73.50;;;;;;5066311;28;20028;-54
2021/04/24 02:06:48;;;;;;;17.48;10.48;;;29.80;73.50;;;;;;5084291;28;20084;-53
2021/04/24 02:09:17;;;;;;;21.65;10.30;;;29.80;73.40;;;;;;5084147;28;20048;-52
2021/04/24 02:12:07;;;;;;;25.45;10.77;;;29.80;73.40;;;;;;5084202;28;20020;-50
2021/04/24 02:14:46;;;;;;;22.67;10.23;;;29.70;73.50;;;;;;5084005;28;20016;-51
2021/04/24 02:17:15;;;;;;;26.27;10.43;;;29.80;73.50;;;;;;5083714;28;20028;-47
2021/04/24 02:19:45;;;;;;;20.55;10.85;;;29.70;73.50;;;;;;5083783;28;20309;-49
2021/04/24 02:22:13;;;;;;;21.45;11.00;;;29.70;73.50;;;;;;5066023;28;20036;-54
2021/04/24 02:24:55;;;;;;;21.30;10.70;;;29.70;73.60;;;;;;5065670;28;20060;-58
2021/04/24 02:27:22;;;;;;;31.25;10.88;;;29.60;73.60;;;;;;5083659;28;20024;-59
2021/04/24 02:29:50;;;;;;;24.00;10.68;;;29.70;73.90;;;;;;5065835;28;20032;-56
2021/04/24 02:32:19;;;;;;;22.58;10.98;;;29.60;73.70;;;;;;5083713;28;20198;-62
2021/04/24 02:34:47;;;;;;;16.48;10.10;;;29.60;73.80;;;;;;5087327;28;20017;-55
2021/04/24 02:37:16;;;;;;;19.48;10.88;;;29.60;73.80;;;;;;5089142;28;20032;-59
2021/04/24 02:39:45;;;;;;;21.15;11.05;;;29.60;74.00;;;;;;5090343;28;20016;-59
2021/04/24 02:42:24;;;;;;;24.63;11.13;;;29.60;74.40;;;;;;5072381;28;20058;-58
2021/04/24 02:44:53;;;;;;;24.60;10.77;;;29.60;73.80;;;;;;5090287;28;20016;-61
2021/04/24 02:47:21;;;;;;;19.52;10.52;;;29.60;73.90;;;;;;5090236;28;20028;-60
2021/04/24 02:49:47;;;;;;;23.98;10.68;;;29.50;73.80;;;;;;5089963;28;20087;-57
2021/04/24 02:52:15;;;;;;;19.20;10.95;;;29.50;73.80;;;;;;5090173;28;20355;-50
2021/04/24 02:54:41;;;;;;;18.17;11.07;;;29.50;73.60;;;;;;5072482;28;20028;-50
2021/04/24 02:57:09;;;;;;;22.55;11.80;;;29.50;73.80;;;;;;5090053;28;20066;-53
2021/04/24 02:59:36;;;;;;;26.30;12.13;;;29.50;73.70;;;;;;5090184;28;20021;-52
2021/04/24 03:02:04;;;;;;;18.00;11.95;;;29.40;73.50;;;;;;5090667;28;20088;-50
2021/04/24 03:04:32;;;;;;;23.05;12.18;;;29.50;73.70;;;;;;5089726;28;20024;-52
2021/04/24 03:06:59;;;;;;;23.42;12.25;;;29.40;73.60;;;;;;5055512;28;20032;-53
2021/04/24 03:09:25;;;;;;;28.95;11.90;;;29.40;73.70;;;;;;5089908;28;20012;-52
2021/04/24 03:11:52;;;;;;;26.27;12.40;;;29.40;74.40;;;;;;5090208;28;20020;-50
2021/04/24 03:14:19;;;;;;;21.25;11.32;;;29.40;74.10;;;;;;5089857;28;20021;-49
2021/04/24 03:16:46;;;;;;;17.17;10.80;;;29.30;74.00;;;;;;5090510;28;20021;-47
2021/04/24 03:19:13;;;;;;;20.25;11.38;;;29.30;73.90;;;;;;5089874;28;20013;-51
2021/04/24 03:21:42;;;;;;;16.25;11.05;;;29.30;73.80;;;;;;5072987;28;20297;-44
2021/04/24 03:24:10;;;;;;;20.58;11.10;;;29.30;73.90;;;;;;5089802;28;20059;-44
2021/04/24 03:26:37;;;;;;;29.75;11.30;;;29.30;74.00;;;;;;5071930;28;20020;-45
2021/04/24 03:29:04;;;;;;;41.55;12.63;;;29.30;74.10;;;;;;5090413;28;20054;-46
2021/04/24 03:31:32;;;;;;;28.75;12.23;;;29.30;74.30;;;;;;5072246;28;20028;-48
2021/04/24 03:33:59;;;;;;;24.92;12.23;;;29.20;74.30;;;;;;5090044;28;20013;-48
2021/04/24 03:36:26;;;;;;;23.35;11.10;;;29.20;74.70;;;;;;5090407;28;20027;-50
2021/04/24 03:38:53;;;;;;;19.17;10.82;;;29.20;75.40;;;;;;5071976;28;20309;-50
2021/04/24 03:41:20;;;;;;;37.40;12.85;;;29.20;75.00;;;;;;5089852;28;20036;-49
2021/04/24 03:43:46;;;;;;;28.77;11.80;;;29.20;75.30;;;;;;5090132;28;20047;-46
2021/04/24 03:46:16;;;;;;;21.58;11.57;;;29.20;75.20;;;;;;5087608;28;20032;-43
2021/04/24 03:48:43;;;;;;;27.95;11.30;;;29.10;74.90;;;;;;5086464;28;20016;-43
2021/04/24 03:51:10;;;;;;;22.90;11.15;;;29.10;74.70;;;;;;5086660;28;20029;-43
2021/04/24 03:53:36;;;;;;;20.67;11.32;;;29.10;75.00;;;;;;5086721;28;20017;-45
2021/04/24 03:56:03;;;;;;;21.65;10.93;;;29.10;74.70;;;;;;5069142;28;20293;-44
2021/04/24 03:58:30;;;;;;;19.80;10.73;;;29.10;74.60;;;;;;5069064;28;20020;-44
2021/04/24 04:00:57;;;;;;;35.40;11.38;;;29.00;74.60;;;;;;5068121;28;20028;-44
2021/04/24 04:03:24;;;;;;;22.40;11.38;;;29.00;75.00;;;;;;5086197;28;20117;-44
2021/04/24 04:05:51;;;;;;;19.55;11.05;;;29.00;74.90;;;;;;5068694;28;20029;-42
2021/04/24 04:08:17;;;;;;;20.67;11.63;;;28.90;74.80;;;;;;5086272;28;20054;-52
2021/04/24 04:10:45;;;;;;;19.33;11.93;;;28.90;74.80;;;;;;5086328;28;20029;-45
2021/04/24 04:13:13;;;;;;;18.70;10.45;;;28.90;74.70;;;;;;5086239;28;20032;-42
2021/04/24 04:15:41;;;;;;;19.67;11.05;;;29.00;74.90;;;;;;5086392;28;20020;-44
2021/04/24 04:18:09;;;;;;;17.88;10.88;;;28.90;74.80;;;;;;5086040;28;20020;-42
2021/04/24 04:20:39;;;;;;;17.92;10.40;;;28.90;74.90;;;;;;5089900;28;20056;-45
2021/04/24 04:23:05;;;;;;;18.70;10.63;;;28.90;75.00;;;;;;5106643;28;20050;-42
2021/04/24 04:25:32;;;;;;;15.82;10.50;;;28.90;74.70;;;;;;5106702;28;20221;-43
2021/04/24 04:27:59;;;;;;;23.17;11.38;;;28.90;74.70;;;;;;5106693;28;20016;-45
2021/04/24 04:30:26;;;;;;;16.20;10.18;;;28.90;74.80;;;;;;5106798;28;20032;-43
2021/04/24 04:32:53;;;;;;;15.35;10.20;;;28.80;74.90;;;;;;5106432;28;20318;-43
2021/04/24 04:35:20;;;;;;;16.23;10.30;;;28.80;75.00;;;;;;5106720;28;20055;-44
2021/04/24 04:37:48;;;;;;;17.83;10.35;;;28.80;75.00;;;;;;5106629;28;20036;-46
2021/04/24 04:40:16;;;;;;;14.68;10.70;;;28.80;75.00;;;;;;5106397;28;20052;-42
2021/04/24 04:42:44;;;;;;;14.70;10.25;;;28.80;74.80;;;;;;5106434;28;20319;-43
2021/04/24 04:45:12;;;;;;;14.50;9.75;;;28.80;74.60;;;;;;5106083;28;20052;-43
2021/04/24 04:47:39;;;;;;;11.32;9.52;;;28.80;74.60;;;;;;5106103;28;20028;-49
2021/04/24 04:50:09;;;;;;;13.63;9.63;;;28.80;74.50;;;;;;5106348;28;20204;-45
2021/04/24 04:52:37;;;;;;;18.35;9.90;;;28.80;74.50;;;;;;5106339;28;20026;-43
2021/04/24 04:55:07;;;;;;;15.00;9.95;;;28.80;74.40;;;;;;5106053;28;20022;-45
2021/04/24 04:57:34;;;;;;;12.48;10.05;;;28.80;74.30;;;;;;5106024;28;20034;-43
2021/04/24 05:00:01;;;;;;;20.35;10.25;;;28.80;74.20;;;;;;5106187;28;20245;-45
2021/04/24 05:02:27;;;;;;;18.27;9.88;;;28.80;74.30;;;;;;5105911;28;20243;-41
2021/04/24 05:04:54;;;;;;;17.27;10.40;;;28.70;74.40;;;;;;5106153;28;20024;-47
2021/04/24 05:07:21;;;;;;;17.48;9.88;;;28.70;74.50;;;;;;5105837;28;20087;-43
2021/04/24 05:09:47;;;;;;;17.95;10.98;;;28.70;74.60;;;;;;5105722;28;20020;-50
2021/04/24 05:12:14;;;;;;;14.30;10.48;;;28.70;75.00;;;;;;5105900;28;20042;-43
2021/04/24 05:14:40;;;;;;;20.77;10.48;;;28.60;75.20;;;;;;5087669;28;20150;-47
2021/04/24 05:17:07;;;;;;;16.13;10.27;;;28.70;75.50;;;;;;5105619;28;20051;-47
2021/04/24 05:19:34;;;;;;;16.15;10.52;;;28.60;75.30;;;;;;5105786;28;20056;-43
2021/04/24 05:22:00;;;;;;;16.52;10.60;;;28.60;75.60;;;;;;5106139;28;20055;-42
2021/04/24 05:24:27;;;;;;;17.08;10.52;;;28.60;75.90;;;;;;5105333;28;20048;-43
2021/04/24 05:26:54;;;;;;;13.82;10.40;;;28.60;75.90;;;;;;5106005;28;20083;-47
2021/04/24 05:29:20;;;;;;;16.08;11.13;;;28.50;75.60;;;;;;5105572;28;20122;-42
2021/04/24 05:31:47;;;;;;;16.05;11.25;;;28.50;75.70;;;;;;5105209;28;20052;-46
2021/04/24 05:34:14;;;;;;;15.35;10.43;;;28.50;75.70;;;;;;5105476;28;20027;-43
2021/04/24 05:36:42;;;;;;;14.93;10.63;;;28.50;75.90;;;;;;5105770;28;20284;-43
2021/04/24 05:39:09;;;;;;;16.02;10.85;;;28.40;76.40;;;;;;5087562;28;20048;-44
2021/04/24 05:41:37;;;;;;;17.38;10.77;;;28.40;75.90;;;;;;5105682;28;20339;-44
2021/04/24 05:44:04;;;;;;;16.65;10.52;;;28.40;76.20;;;;;;5105263;28;20092;-46
2021/04/24 05:46:31;;;;;;;11.77;10.13;;;28.40;76.30;;;;;;5105618;28;20074;-50
2021/04/24 05:49:04;;;;;;;17.73;10.80;;;28.40;76.30;;;;;;5086924;28;20036;-42
2021/04/24 05:51:30;;;;;;;19.13;11.23;;;28.30;76.50;;;;;;5105458;28;20071;-50
2021/04/24 05:53:58;;;;;;;17.88;11.20;;;28.30;76.80;;;;;;5087251;28;20213;-50
2021/04/24 05:56:25;;;;;;;14.82;11.25;;;28.30;76.80;;;;;;5105048;28;20027;-48
2021/04/24 05:58:52;;;;;;;15.73;10.90;;;28.30;76.50;;;;;;5105070;28;20217;-48
2021/04/24 06:01:19;;;;;;;22.05;11.40;;;28.30;76.40;;;;;;5105260;28;20019;-43
2021/04/24 06:03:46;;;;;;;14.40;11.10;;;28.30;76.60;;;;;;5104970;28;20312;-43
2021/04/24 06:06:12;;;;;;;16.15;10.85;;;28.30;76.40;;;;;;5105238;28;20095;-49
2021/04/24 06:08:39;;;;;;;14.50;10.55;;;28.30;76.50;;;;;;5104249;28;20020;-48
2021/04/24 06:11:06;;;;;;;16.38;11.43;;;28.20;76.70;;;;;;5105235;28;20023;-44
2021/04/24 06:13:32;;;;;;;19.70;10.55;;;28.20;76.70;;;;;;5105120;28;20095;-44
2021/04/24 06:16:02;;;;;;;15.93;10.55;;;28.20;76.80;;;;;;5104789;28;20023;-44
2021/04/24 06:18:29;;;;;;;16.30;11.23;;;28.20;76.80;;;;;;5103502;28;20039;-42
2021/04/24 06:20:55;;;;;;;15.68;10.32;;;28.20;76.80;;;;;;5104992;28;20020;-42
2021/04/24 06:23:22;;;;;;;17.23;11.23;;;28.20;76.80;;;;;;5104412;28;20035;-43
2021/04/24 06:25:49;;;;;;;17.10;10.60;;;28.20;76.80;;;;;;5104971;28;20036;-42
2021/04/24 06:28:15;;;;;;;18.63;10.90;;;28.20;77.00;;;;;;5104551;28;20027;-54
2021/04/24 06:30:42;;;;;;;19.10;10.93;;;28.20;76.60;;;;;;5104772;28;20031;-50
2021/04/24 06:33:08;;;;;;;15.32;10.32;;;28.20;76.60;;;;;;5104585;28;20043;-41
2021/04/24 06:35:35;;;;;;;14.82;10.40;;;28.20;76.50;;;;;;5104814;28;20024;-42
2021/04/24 06:38:02;;;;;;;15.45;10.13;;;28.20;76.50;;;;;;5104368;28;20086;-49
2021/04/24 06:40:29;;;;;;;17.00;9.93;;;28.20;76.50;;;;;;5104144;28;20224;-48
2021/04/24 06:42:55;;;;;;;16.02;10.18;;;28.20;76.40;;;;;;5104317;28;20061;-42
2021/04/24 06:45:22;;;;;;;14.57;9.85;;;28.20;76.50;;;;;;5104522;28;20190;-43
2021/04/24 06:47:51;;;;;;;15.40;10.00;;;28.20;76.00;;;;;;5104209;28;20061;-42
2021/04/24 06:50:19;;;;;;;13.52;10.20;;;28.20;76.00;;;;;;5104444;28;20024;-48
2021/04/24 06:52:45;;;;;;;15.73;10.13;;;28.10;76.10;;;;;;5104491;28;20020;-44
2021/04/24 06:55:16;;;;;;;17.55;10.38;;;28.10;76.10;;;;;;5104387;28;20031;-42
2021/04/24 06:57:44;;;;;;;13.95;10.05;;;28.10;76.40;;;;;;5104301;28;20024;-42
2021/04/24 07:00:11;;;;;;;15.63;10.68;;;28.10;76.60;;;;;;5104261;28;20032;-48
2021/04/24 07:02:38;;;;;;;15.90;10.70;;;28.10;76.80;;;;;;5104383;28;20308;-46
2021/04/24 07:05:07;;;;;;;19.92;10.50;;;28.00;76.60;;;;;;5104255;28;20062;-49
2021/04/24 07:07:33;;;;;;;14.30;10.27;;;28.00;76.60;;;;;;5104006;28;20034;-46
2021/04/24 07:10:00;;;;;;;16.30;10.48;;;28.00;76.80;;;;;;5104224;28;20269;-45
2021/04/24 07:12:27;;;;;;;16.75;10.07;;;28.00;76.80;;;;;;5104175;28;20020;-43
2021/04/24 07:14:53;;;;;;;14.30;10.60;;;28.00;77.00;;;;;;5104193;28;20019;-44
2021/04/24 07:17:20;;;;;;;15.77;10.70;;;28.00;77.20;;;;;;5104244;28;20019;-42
2021/04/24 07:19:47;;;;;;;18.33;10.88;;;28.00;76.90;;;;;;5104188;28;20267;-50
2021/04/24 07:22:14;;;;;;;18.15;10.75;;;28.00;77.20;;;;;;5106696;28;20024;-43
2021/04/24 07:24:45;;;;;;;19.33;11.30;;;28.00;77.30;;;;;;5107685;28;20059;-41
2021/04/24 07:27:13;;;;;;;15.27;10.63;;;28.00;77.30;;;;;;5107746;28;20032;-42
2021/04/24 07:29:41;;;;;;;15.82;10.90;;;28.00;77.30;;;;;;5107745;28;20208;-42
2021/04/24 07:32:07;;;;;;;18.02;11.07;;;28.00;77.90;;;;;;5107830;28;20068;-47
2021/04/24 07:34:34;;;;;;;18.25;10.65;;;28.00;77.50;;;;;;5107939;28;20175;-42
2021/04/24 07:37:01;;;;;;;13.52;10.25;;;28.00;77.70;;;;;;5108130;28;20023;-45
2021/04/24 07:39:28;;;;;;;17.98;11.27;;;28.00;77.90;;;;;;5107735;28;20043;-47
2021/04/24 07:41:56;;;;;;;17.10;11.43;;;28.00;78.00;;;;;;5108135;28;20062;-44
2021/04/24 07:44:24;;;;;;;16.10;11.23;;;28.00;78.00;;;;;;5089474;28;20047;-47
2021/04/24 07:46:52;;;;;;;18.55;10.93;;;27.90;77.80;;;;;;5107874;28;20031;-44
2021/04/24 07:49:19;;;;;;;15.00;10.50;;;27.90;78.00;;;;;;5107461;28;20040;-42
2021/04/24 07:51:46;;;;;;;15.77;10.50;;;27.90;78.20;;;;;;5107677;28;20051;-45
2021/04/24 07:54:14;;;;;;;13.88;9.93;;;27.90;78.10;;;;;;5107126;28;20043;-45
2021/04/24 07:56:42;;;;;;;16.67;10.90;;;27.90;78.00;;;;;;5107465;28;20044;-47
2021/04/24 07:59:10;;;;;;;16.10;10.30;;;27.90;78.10;;;;;;5106740;28;20091;-49
2021/04/24 08:01:40;;;;;;;15.27;10.60;;;27.90;78.30;;;;;;5107231;28;20069;-48
2021/04/24 08:04:08;;;;;;;15.43;10.93;;;27.90;78.50;;;;;;5106995;28;20023;-46
2021/04/24 08:06:35;;;;;;;15.50;11.70;;;27.90;79.40;;;;;;5106883;28;20358;-44
2021/04/24 08:09:02;;;;;;;15.52;11.10;;;27.80;79.10;;;;;;5107157;28;20020;-50
2021/04/24 08:11:29;;;;;;;13.90;11.15;;;27.80;79.10;;;;;;5106948;28;20292;-49
2021/04/24 08:13:55;;;;;;;15.15;11.35;;;27.80;79.40;;;;;;5106436;28;20066;-49
2021/04/24 08:16:22;;;;;;;17.17;11.38;;;27.80;79.70;;;;;;5106924;28;20015;-57
2021/04/24 08:18:49;;;;;;;18.05;11.63;;;27.70;79.80;;;;;;5106423;28;20023;-43
2021/04/24 08:21:19;;;;;;;20.20;12.38;;;27.70;79.80;;;;;;5106691;28;20035;-44
2021/04/24 08:23:46;;;;;;;17.50;11.70;;;27.70;79.80;;;;;;5106396;28;20412;-47
2021/04/24 08:26:13;;;;;;;15.43;11.07;;;27.70;79.90;;;;;;5106564;28;20035;-51
2021/04/24 08:28:40;;;;;;;25.35;11.90;;;27.70;79.80;;;;;;5106558;28;20089;-55
2021/04/24 08:31:07;;;;;;;17.02;11.10;;;27.70;79.50;;;;;;5107019;28;20020;-46
2021/04/24 08:33:33;;;;;;;18.83;11.55;;;27.70;79.10;;;;;;5105770;28;20019;-44
2021/04/24 08:36:00;;;;;;;16.35;10.63;;;27.70;79.20;;;;;;5106218;28;20228;-43
2021/04/24 08:38:26;;;;;;;17.58;10.93;;;27.70;79.00;;;;;;5106023;28;20020;-44
2021/04/24 08:40:53;;;;;;;13.18;9.70;;;27.70;78.90;;;;;;5106182;28;20028;-51
2021/04/24 08:43:20;;;;;;;20.05;11.07;;;27.70;78.70;;;;;;5105914;28;20020;-49
2021/04/24 08:45:48;;;;;;;18.25;10.57;;;27.70;78.50;;;;;;5106259;28;20036;-43
2021/04/24 08:48:19;;;;;;;15.63;10.48;;;27.70;78.40;;;;;;5105754;28;20024;-46
2021/04/24 08:50:47;;;;;;;15.20;10.43;;;27.70;78.30;;;;;;5106268;28;20024;-45
2021/04/24 08:53:18;;;;;;;12.27;10.43;;;27.60;78.40;;;;;;5106020;28;20269;-44
2021/04/24 08:55:45;;;;;;;13.75;10.52;;;27.60;78.40;;;;;;5106048;28;20077;-54
2021/04/24 08:58:12;;;;;;;19.85;11.30;;;27.70;78.70;;;;;;5105570;28;20028;-47
2021/04/24 09:00:40;;;;;;;16.30;11.30;;;27.60;78.60;;;;;;5106446;28;20296;-50
2021/04/24 09:03:09;;;;;;;15.93;11.27;;;27.60;78.70;;;;;;5105751;28;20038;-48
2021/04/24 09:05:37;;;;;;;16.63;11.68;;;27.60;78.70;;;;;;5105885;28;20065;-46
2021/04/24 09:08:06;;;;;;;16.38;11.77;;;27.60;78.80;;;;;;5105774;28;20024;-45
2021/04/24 09:10:52;;;;;;;16.60;12.45;;;27.60;78.90;;;;;;5105554;28;20069;-45
2021/04/24 09:13:21;;;;;;;18.33;12.63;;;27.60;79.00;;;;;;5105610;28;20020;-44
2021/04/24 09:15:48;;;;;;;17.10;12.20;;;27.60;79.20;;;;;;5105863;28;20034;-43
2021/04/24 09:18:16;;;;;;;16.15;12.23;;;27.50;79.20;;;;;;5105516;28;20024;-43
2021/04/24 09:20:55;;;;;;;20.30;11.52;;;27.50;79.40;;;;;;5105371;28;20059;-47
2021/04/24 09:23:29;;;;;;;14.55;11.98;;;27.50;79.40;;;;;;5104819;28;20024;-46
2021/04/24 09:26:01;;;;;;;18.70;11.75;;;27.50;79.20;;;;;;5105553;28;20142;-43
2021/04/24 09:28:30;;;;;;;21.02;11.52;;;27.50;79.20;;;;;;5104968;28;20020;-43
2021/04/24 09:30:59;;;;;;;13.80;11.05;;;27.40;79.00;;;;;;5105101;28;20047;-42
2021/04/24 09:33:33;;;;;;;18.17;11.43;;;27.50;79.20;;;;;;5105036;28;20028;-42
2021/04/24 09:36:00;;;;;;;18.45;11.00;;;27.50;79.10;;;;;;5105100;28;20108;-46
2021/04/24 09:38:28;;;;;;;15.07;10.90;;;27.50;79.00;;;;;;5104820;28;20096;-43
2021/04/24 09:41:15;;;;;;;15.75;10.40;;;27.50;79.10;;;;;;5105101;28;20024;-42
2021/04/24 09:44:00;;;;;;;16.08;11.38;;;27.40;79.20;;;;;;5104084;28;20050;-45
2021/04/24 09:46:48;;;;;;;18.08;11.70;;;27.50;79.10;;;;;;5105168;28;20051;-43
2021/04/24 09:49:25;;;;;;;17.08;11.35;;;27.50;79.10;;;;;;5104856;28;20057;-43
2021/04/24 09:51:52;;;;;;;19.67;11.38;;;27.40;79.00;;;;;;5105021;28;20035;-44
2021/04/24 09:54:21;;;;;;;20.83;10.77;;;27.50;79.00;;;;;;5104885;28;20040;-50
2021/04/24 09:56:57;;;;;;;13.95;10.80;;;27.50;79.10;;;;;;5104531;28;20209;-48
2021/04/24 09:59:24;;;;;;;14.15;10.68;;;27.50;79.10;;;;;;5104426;28;20020;-50
2021/04/24 10:01:58;;;;;;;19.05;11.57;;;27.50;79.10;;;;;;5105226;28;20073;-45
2021/04/24 10:04:25;;;;;;;16.13;11.02;;;27.40;79.10;;;;;;5104227;28;20012;-44
2021/04/24 10:06:55;;;;;;;16.90;11.05;;;27.40;79.10;;;;;;5104919;28;20095;-49
2021/04/24 10:09:24;;;;;;;21.27;10.95;;;27.40;79.20;;;;;;5104389;28;20019;-43
2021/04/24 10:11:52;;;;;;;22.40;12.32;;;27.40;79.30;;;;;;5104676;28;20043;-47
2021/04/24 10:14:37;;;;;;;13.82;10.63;;;27.40;79.40;;;;;;5104328;28;20015;-42
2021/04/24 10:17:06;;;;;;;15.77;10.88;;;27.40;79.40;;;;;;5104829;28;20028;-44
2021/04/24 10:19:35;;;;;;;15.77;10.45;;;27.40;79.30;;;;;;5104491;28;20208;-48
2021/04/24 10:22:03;;;;;;;16.50;10.98;;;27.40;79.10;;;;;;5104965;28;20028;-43
2021/04/24 10:24:29;;;;;;;22.38;11.48;;;27.40;79.00;;;;;;5104103;28;20078;-42
2021/04/24 10:26:57;;;;;;;16.63;11.25;;;27.40;78.90;;;;;;5104783;28;20032;-56
2021/04/24 10:29:24;;;;;;;18.50;11.25;;;27.40;78.80;;;;;;5103968;28;20011;-43
2021/04/24 10:31:52;;;;;;;21.95;10.55;;;27.40;78.60;;;;;;5104443;28;20087;-42
2021/04/24 10:34:19;;;;;;;21.80;11.75;;;27.40;78.60;;;;;;5104084;28;20321;-44
2021/04/24 10:36:46;;;;;;;20.15;11.63;;;27.40;78.40;;;;;;5104478;28;20028;-44
2021/04/24 10:39:26;;;;;;;19.60;11.18;;;27.40;78.20;;;;;;5103811;28;20094;-42
2021/04/24 10:42:07;;;;;;;18.73;10.80;;;27.40;77.80;;;;;;5104527;28;20311;-50
2021/04/24 10:44:59;;;;;;;19.90;10.93;;;27.40;77.60;;;;;;5103650;28;20221;-43
2021/04/24 10:47:41;;;;;;;16.23;10.45;;;27.40;77.50;;;;;;5104029;28;20066;-47
2021/04/24 10:50:41;;;;;;;15.00;10.15;;;27.40;77.50;;;;;;5102230;28;20058;-42
2021/04/24 10:53:28;;;;;;;20.05;10.70;;;27.40;77.60;;;;;;5083190;28;20219;-42
2021/04/24 10:55:58;;;;;;;20.73;10.70;;;27.40;77.40;;;;;;5085979;28;20029;-44
2021/04/24 10:58:27;;;;;;;21.05;11.60;;;27.40;77.40;;;;;;5087769;28;20029;-43
2021/04/24 11:00:59;;;;;;;19.10;10.73;;;27.40;77.50;;;;;;5087936;28;20032;-47
2021/04/24 11:03:42;;;;;;;23.73;11.27;;;27.30;77.40;;;;;;5087579;28;20122;-49
2021/04/24 11:06:18;;;;;;;17.65;10.02;;;27.40;77.40;;;;;;5088480;28;20058;-45
2021/04/24 11:08:46;;;;;;;24.98;10.85;;;27.40;77.30;;;;;;5069546;28;20024;-50
2021/04/24 11:11:15;;;;;;;24.98;10.30;;;27.40;77.40;;;;;;5087990;28;20095;-43
2021/04/24 11:13:48;;;;;;;15.77;10.60;;;27.40;77.30;;;;;;5069907;28;20067;-49
2021/04/24 11:16:17;;;;;;;21.65;10.02;;;27.60;76.90;;;;;;5087811;28;20028;-48
2021/04/24 11:18:47;;;;;;;20.83;10.70;;;27.60;76.80;;;;;;5069466;28;20316;-44
2021/04/24 11:21:27;;;;;;;23.98;10.20;;;27.80;76.30;;;;;;5087410;28;20032;-44
2021/04/24 11:23:58;;;;;;;33.17;9.93;;;27.90;75.80;;;;;;5087173;28;20116;-47
2021/04/24 11:26:34;;;;;;;26.08;10.18;;;28.00;75.40;;;;;;5087425;28;20029;-48
2021/04/24 11:29:22;;;;;;;24.80;10.07;;;28.10;75.10;;;;;;5087195;28;20060;-51
2021/04/24 11:31:55;;;;;;;20.65;9.45;;;28.20;74.80;;;;;;5087633;28;20025;-51
2021/04/24 11:34:31;;;;;;;24.80;9.80;;;28.20;74.30;;;;;;5087251;28;20305;-58
2021/04/24 11:37:24;;;;;;;26.70;9.55;;;28.30;74.20;;;;;;5087931;28;20033;-49
2021/04/24 11:40:10;;;;;;;21.15;9.13;;;28.30;74.10;;;;;;5087406;28;20022;-48
2021/04/24 11:42:49;;;;;;;23.00;9.32;;;28.30;73.70;;;;;;5087499;28;20019;-51
2021/04/24 11:46:01;;;;;;;17.80;8.23;;;28.40;73.80;;;;;;5069256;28;20032;-53
2021/04/24 11:48:47;;;;;;;19.10;8.65;;;28.60;73.20;;;;;;5077984;28;20032;-49
2021/04/24 11:51:36;;;;;;;19.02;8.50;;;28.80;72.50;;;;;;5087539;28;20135;-53
2021/04/24 11:54:04;;;;;;;14.18;9.38;;;28.80;72.70;;;;;;5087359;28;20017;-47
2021/04/24 11:56:31;;;;;;;22.25;8.88;;;28.70;72.70;;;;;;5087695;28;20152;-50
2021/04/24 11:58:59;;;;;;;16.08;8.63;;;28.70;73.00;;;;;;5087359;28;20016;-49
2021/04/24 12:01:28;;;;;;;14.10;8.07;;;28.70;73.00;;;;;;5086601;28;20035;-50
2021/04/24 12:03:55;;;;;;;15.88;8.85;;;28.60;73.20;;;;;;5069475;28;20269;-46
2021/04/24 12:06:41;;;;;;;18.00;9.05;;;28.60;73.50;;;;;;5086986;28;20024;-47
2021/04/24 12:09:18;;;;;;;20.13;9.43;;;28.60;73.60;;;;;;5086589;28;20024;-47
2021/04/24 12:12:00;;;;;;;18.30;9.60;;;28.60;73.70;;;;;;5087315;28;20083;-47
2021/04/24 12:14:28;;;;;;;21.30;10.25;;;28.50;74.10;;;;;;5086693;28;20024;-47
2021/04/24 12:16:56;;;;;;;19.95;10.40;;;28.60;74.70;;;;;;5087356;28;20048;-50
2021/04/24 12:19:30;;;;;;;21.23;10.20;;;28.60;74.80;;;;;;5087089;28;20018;-53
2021/04/24 12:22:21;;;;;;;19.15;10.23;;;28.70;74.70;;;;;;5087529;28;20024;-52
2021/04/24 12:25:23;;;;;;;19.08;10.55;;;28.80;75.00;;;;;;5086921;28;20329;-49
2021/04/24 12:27:53;;;;;;;23.25;10.43;;;28.80;74.90;;;;;;5086906;28;20037;-53
2021/04/24 12:30:22;;;;;;;18.23;10.02;;;28.90;75.20;;;;;;5087078;28;20017;-47
2021/04/24 12:33:10;;;;;;;26.50;10.70;;;29.00;75.30;;;;;;5068817;28;20281;-56
2021/04/24 12:36:05;;;;;;;18.40;11.20;;;29.00;75.40;;;;;;5086717;28;20052;-53
2021/04/24 12:38:40;;;;;;;18.10;10.02;;;29.10;75.40;;;;;;5086162;28;20269;-47
2021/04/24 12:41:07;;;;;;;22.13;10.93;;;29.20;75.70;;;;;;5086403;28;20036;-48